Time;durP1;ratioP1;P1;durP2;ratioP2;P2;SDS_P1;SDS_P2;PMS_P1;PMS_P2;Temp;Humidity;BMP_temperature;BMP_pressure;BME280_temperature;BME280_humidity;BME280_pressure;Samples;Min_cycle;Max_cycle;Signal;HPM_P1;HPM_P2
2021/09/30 00:01:34;;;;;;;3.25;1.00;;;9.70;99.90;;;;;;5051966;28;20107;-87
2021/09/30 00:04:03;;;;;;;3.22;1.60;;;9.80;99.90;;;;;;5040375;28;20013;-86
2021/09/30 00:06:31;;;;;;;3.78;1.50;;;9.80;99.90;;;;;;5046694;28;20237;-85
2021/09/30 00:08:58;;;;;;;4.90;1.52;;;9.80;99.90;;;;;;5048262;28;20032;-87
2021/09/30 00:11:29;;;;;;;3.38;0.93;;;9.80;99.90;;;;;;5038492;28;20059;-86
2021/09/30 00:14:13;;;;;;;2.72;0.98;;;9.80;99.90;;;;;;5037260;28;20424;-88
2021/09/30 00:41:41;;;;;;;4.57;2.05;;;9.80;99.90;;;;;;5052350;28;20090;-87
2021/09/30 00:47:05;;;;;;;4.30;2.13;;;9.70;99.90;;;;;;5043642;28;20062;-87
2021/09/30 02:18:13;;;;;;;6.72;3.42;;;9.10;99.90;;;;;;5042250;28;20040;-88
2021/09/30 02:25:29;;;;;;;6.85;3.53;;;8.80;99.90;;;;;;5042066;28;20036;-88
2021/09/30 02:58:27;;;;;;;6.05;3.65;;;8.60;99.90;;;;;;5024522;28;20059;-88
2021/09/30 03:01:06;;;;;;;6.10;3.20;;;8.60;99.90;;;;;;5040266;28;20405;-87
2021/09/30 03:03:36;;;;;;;7.00;3.45;;;8.60;99.90;;;;;;5048822;28;20066;-88
2021/09/30 03:06:05;;;;;;;6.50;3.88;;;8.60;99.90;;;;;;5037301;28;20108;-88
2021/09/30 03:08:42;;;;;;;8.32;3.58;;;8.50;99.90;;;;;;5043453;28;20112;-88
2021/09/30 03:11:12;;;;;;;7.82;3.05;;;8.60;99.90;;;;;;5045895;28;20037;-89
2021/09/30 03:13:40;;;;;;;7.32;2.83;;;8.50;99.90;;;;;;5035556;28;20434;-88
2021/09/30 03:16:17;;;;;;;6.93;3.15;;;8.50;99.90;;;;;;5046384;28;20087;-88
2021/09/30 03:18:52;;;;;;;6.20;3.38;;;8.50;99.90;;;;;;5042460;28;20154;-88
2021/09/30 03:24:04;;;;;;;5.47;3.40;;;8.50;99.90;;;;;;5023831;28;20071;-88
2021/09/30 03:26:31;;;;;;;7.93;3.40;;;8.50;99.90;;;;;;5041762;28;20038;-88
2021/09/30 03:28:58;;;;;;;6.70;3.15;;;8.50;99.90;;;;;;5046015;28;20060;-88
2021/09/30 03:31:26;;;;;;;6.43;3.22;;;8.40;99.90;;;;;;5035375;28;20116;-88
2021/09/30 03:33:51;;;;;;;8.63;3.47;;;8.40;99.90;;;;;;5019025;28;20465;-88
2021/09/30 03:36:19;;;;;;;5.90;3.13;;;8.50;99.90;;;;;;5045811;28;20032;-88
2021/09/30 03:38:45;;;;;;;5.90;3.13;;;8.40;99.90;;;;;;4999327;28;20030;-88
2021/09/30 03:41:11;;;;;;;8.05;3.38;;;8.50;99.90;;;;;;5029475;28;20029;-88
2021/09/30 03:43:37;;;;;;;7.70;3.40;;;8.50;99.90;;;;;;5018266;28;20048;-88
2021/09/30 03:46:03;;;;;;;7.97;3.35;;;8.50;99.90;;;;;;5046500;28;20025;-88
2021/09/30 03:48:34;;;;;;;6.88;3.05;;;8.50;99.90;;;;;;5023945;28;20036;-88
2021/09/30 03:51:14;;;;;;;9.70;3.90;;;8.50;99.90;;;;;;5038633;28;20075;-87
2021/09/30 03:54:00;;;;;;;11.00;4.60;;;8.50;99.90;;;;;;5048320;28;20063;-87
2021/09/30 03:56:37;;;;;;;8.00;4.25;;;8.50;99.90;;;;;;5040125;28;20017;-87
2021/09/30 03:59:19;;;;;;;9.30;3.78;;;8.60;99.90;;;;;;5037832;28;20029;-87
2021/09/30 04:01:49;;;;;;;5.63;3.10;;;8.50;99.90;;;;;;5033777;28;20036;-87
2021/09/30 04:04:15;;;;;;;6.38;2.80;;;8.50;99.90;;;;;;5039472;28;20107;-87
2021/09/30 04:06:41;;;;;;;6.95;3.25;;;8.50;99.90;;;;;;5040907;28;20116;-87
2021/09/30 04:09:09;;;;;;;7.00;2.90;;;8.50;99.90;;;;;;5045545;28;20029;-87
2021/09/30 04:11:35;;;;;;;9.40;3.50;;;8.50;99.90;;;;;;5034679;28;20041;-86
2021/09/30 04:14:02;;;;;;;6.78;3.00;;;8.40;99.90;;;;;;5046305;28;20009;-87
2021/09/30 04:16:34;;;;;;;8.23;4.38;;;8.50;99.90;;;;;;5042033;28;20391;-87
2021/09/30 04:19:03;;;;;;;11.50;3.50;;;8.50;99.90;;;;;;5037956;28;20385;-86
2021/09/30 04:21:31;;;;;;;11.95;4.72;;;8.50;99.90;;;;;;5047449;28;20045;-87
2021/09/30 04:24:02;;;;;;;9.80;4.45;;;8.50;99.90;;;;;;5035834;28;20057;-87
2021/09/30 04:26:28;;;;;;;5.78;3.35;;;8.50;99.90;;;;;;5042508;28;20033;-87
2021/09/30 04:29:02;;;;;;;8.80;4.40;;;8.50;99.90;;;;;;5026814;28;20091;-86
2021/09/30 04:31:31;;;;;;;8.50;4.45;;;8.50;99.90;;;;;;5018328;28;20091;-87
2021/09/30 04:33:57;;;;;;;9.40;4.05;;;8.50;99.90;;;;;;5040131;28;20104;-88
2021/09/30 04:36:23;;;;;;;9.18;4.40;;;8.50;99.90;;;;;;5030623;28;20175;-87
2021/09/30 04:38:53;;;;;;;9.13;4.15;;;8.50;99.90;;;;;;5039712;28;20326;-87
2021/09/30 04:41:20;;;;;;;9.35;4.72;;;8.60;99.90;;;;;;5041112;28;20033;-88
2021/09/30 04:43:52;;;;;;;9.77;4.20;;;8.50;99.90;;;;;;5040183;28;20466;-87
2021/09/30 04:46:22;;;;;;;8.82;4.13;;;8.50;99.90;;;;;;5038508;28;20034;-87
2021/09/30 04:48:51;;;;;;;8.05;4.05;;;8.60;99.90;;;;;;5023282;28;20044;-86
2021/09/30 04:51:20;;;;;;;8.95;3.97;;;8.50;99.90;;;;;;5041941;28;20179;-87
2021/09/30 04:53:50;;;;;;;7.97;4.50;;;8.50;99.90;;;;;;5038796;28;20021;-88
2021/09/30 04:56:20;;;;;;;7.22;3.45;;;8.50;99.90;;;;;;5038497;28;20057;-87
2021/09/30 04:58:46;;;;;;;10.55;4.47;;;8.50;99.90;;;;;;5039336;28;20025;-87
2021/09/30 05:01:12;;;;;;;10.52;4.43;;;8.50;99.90;;;;;;5041317;28;20072;-87
2021/09/30 05:03:40;;;;;;;7.55;3.75;;;8.50;99.90;;;;;;5026760;28;20057;-88
2021/09/30 05:06:08;;;;;;;12.32;5.15;;;8.40;99.90;;;;;;5029308;28;20047;-87
2021/09/30 05:08:34;;;;;;;8.75;4.00;;;8.40;99.90;;;;;;5045565;28;20017;-87
2021/09/30 05:11:04;;;;;;;11.52;4.68;;;8.40;99.90;;;;;;5041443;28;20086;-86
2021/09/30 05:13:43;;;;;;;9.13;4.20;;;8.40;99.90;;;;;;5042330;28;20080;-87
2021/09/30 05:16:16;;;;;;;7.50;4.50;;;8.40;99.90;;;;;;5045327;28;20029;-87
2021/09/30 05:18:51;;;;;;;;;;;8.40;99.90;;;;;;5029726;28;20055;-86
2021/09/30 05:21:29;;;;;;;11.38;5.53;;;8.30;99.90;;;;;;5038630;28;19963;-86
2021/09/30 05:23:55;;;;;;;10.65;5.30;;;8.30;99.90;;;;;;5028361;28;20022;-86
2021/09/30 05:26:21;;;;;;;15.73;5.68;;;8.30;99.90;;;;;;5037755;28;20071;-86
2021/09/30 05:28:47;;;;;;;11.77;5.10;;;8.30;99.90;;;;;;5035831;28;20034;-87
2021/09/30 05:31:19;;;;;;;11.27;5.50;;;8.30;99.90;;;;;;5039036;28;20116;-87
2021/09/30 05:33:55;;;;;;;9.00;4.80;;;8.30;99.90;;;;;;5035890;28;20021;-87
2021/09/30 05:36:31;;;;;;;9.20;4.95;;;8.30;99.90;;;;;;5037688;28;20029;-86
2021/09/30 05:39:20;;;;;;;9.27;4.85;;;8.30;99.90;;;;;;5023413;28;20470;-87
2021/09/30 05:41:49;;;;;;;10.05;4.85;;;8.30;99.90;;;;;;5045863;28;20040;-86
2021/09/30 05:44:21;;;;;;;8.43;4.07;;;8.20;99.90;;;;;;5047039;28;20484;-87
2021/09/30 05:46:54;;;;;;;7.47;4.32;;;8.20;99.90;;;;;;5020169;28;20415;-87
2021/09/30 05:49:26;;;;;;;9.52;4.80;;;8.20;99.90;;;;;;5043980;28;20020;-87
2021/09/30 05:51:58;;;;;;;7.18;4.13;;;8.20;99.90;;;;;;5029838;28;20029;-87
2021/09/30 05:54:29;;;;;;;11.55;4.97;;;8.20;99.90;;;;;;5040817;28;20123;-87
2021/09/30 05:56:59;;;;;;;9.90;3.90;;;8.20;99.90;;;;;;5041499;28;20052;-87
2021/09/30 05:59:31;;;;;;;7.82;4.55;;;8.20;99.90;;;;;;5036192;28;20095;-87
2021/09/30 06:03:50;;;;;;;10.00;4.28;;;8.20;99.90;;;;;;5014668;28;20474;-88
2021/09/30 06:13:48;;;;;;;6.93;4.20;;;8.20;99.90;;;;;;5039563;28;20041;-87
2021/09/30 06:16:16;;;;;;;9.13;4.70;;;8.20;99.90;;;;;;5031819;28;20053;-87
2021/09/30 06:18:55;;;;;;;8.45;4.55;;;8.20;99.90;;;;;;5039486;28;20021;-87
2021/09/30 06:21:31;;;;;;;6.63;3.80;;;8.30;99.90;;;;;;5037868;28;20076;-88
2021/09/30 06:24:09;;;;;;;11.05;4.60;;;8.30;99.90;;;;;;5008966;28;20025;-87
2021/09/30 06:26:46;;;;;;;10.57;5.07;;;8.40;99.90;;;;;;5039582;28;20037;-87
2021/09/30 06:29:20;;;;;;;11.38;4.60;;;8.40;99.90;;;;;;5037245;28;20140;-87
2021/09/30 06:31:58;;;;;;;13.45;5.20;;;8.50;99.90;;;;;;5045457;28;20039;-87
2021/09/30 06:34:36;;;;;;;11.25;5.88;;;8.60;99.90;;;;;;5047017;28;20029;-87
2021/09/30 06:37:11;;;;;;;9.23;4.30;;;8.60;99.90;;;;;;5042558;28;20018;-88
2021/09/30 06:39:42;;;;;;;10.48;4.43;;;8.60;99.90;;;;;;5044012;28;20512;-87
2021/09/30 06:42:11;;;;;;;9.32;4.53;;;8.70;99.90;;;;;;5029655;28;20446;-87
2021/09/30 06:44:42;;;;;;;8.63;4.55;;;8.80;99.90;;;;;;5045207;28;20500;-87
2021/09/30 06:47:11;;;;;;;10.65;4.50;;;8.80;99.90;;;;;;5019741;28;20033;-87
2021/09/30 06:49:37;;;;;;;11.57;4.88;;;8.80;99.90;;;;;;5043012;28;20023;-87
2021/09/30 06:52:13;;;;;;;9.43;4.65;;;8.90;99.90;;;;;;5044919;28;20477;-87
2021/09/30 06:54:54;;;;;;;13.35;4.85;;;9.00;99.90;;;;;;5046393;28;20024;-88
2021/09/30 06:57:22;;;;;;;11.13;4.63;;;9.00;99.90;;;;;;5025031;23;20164;-87
2021/09/30 06:59:51;;;;;;;12.60;4.80;;;9.00;99.90;;;;;;4990581;28;20475;-88
2021/09/30 07:02:22;;;;;;;10.27;4.13;;;9.10;99.90;;;;;;4979601;28;20116;-88
2021/09/30 07:04:51;;;;;;;8.05;4.50;;;9.20;99.90;;;;;;4976428;28;20146;-87
2021/09/30 07:07:18;;;;;;;11.18;5.75;;;9.20;99.90;;;;;;4992655;28;20030;-87
2021/09/30 07:09:47;;;;;;;11.98;5.10;;;9.30;99.90;;;;;;4991896;28;20125;-88
2021/09/30 07:12:22;;;;;;;9.57;4.10;;;9.40;99.90;;;;;;4992064;28;20034;-88
2021/09/30 07:15:00;;;;;;;11.27;5.63;;;9.50;99.90;;;;;;4976022;28;20040;-88
2021/09/30 07:17:32;;;;;;;9.30;4.57;;;9.60;99.90;;;;;;4975220;28;20045;-88
2021/09/30 07:20:03;;;;;;;10.38;5.35;;;9.70;99.90;;;;;;4992360;28;20054;-88
2021/09/30 07:22:38;;;;;;;9.07;4.68;;;9.80;99.90;;;;;;4990387;28;20049;-87
2021/09/30 07:25:11;;;;;;;9.98;4.75;;;9.90;99.90;;;;;;4984644;28;20038;-87
2021/09/30 07:27:41;;;;;;;6.33;3.97;;;10.00;99.90;;;;;;5007449;28;20038;-88
2021/09/30 07:30:07;;;;;;;11.02;4.25;;;10.10;99.90;;;;;;4987542;28;20292;-87
2021/09/30 07:32:51;;;;;;;12.82;4.72;;;10.20;99.90;;;;;;4990973;28;20274;-87
2021/09/30 07:35:20;;;;;;;9.98;4.32;;;10.30;99.90;;;;;;4976563;28;20032;-87
2021/09/30 07:37:52;;;;;;;7.90;4.32;;;10.40;99.90;;;;;;4986686;28;20030;-87
2021/09/30 07:40:24;;;;;;;6.95;3.30;;;10.30;99.90;;;;;;4991439;28;20451;-87
2021/09/30 07:42:50;;;;;;;9.00;4.10;;;10.30;99.90;;;;;;4991798;28;20026;-87
2021/09/30 07:45:20;;;;;;;6.75;3.75;;;10.30;99.90;;;;;;4992475;28;20129;-87
2021/09/30 07:47:52;;;;;;;5.20;3.22;;;10.30;99.90;;;;;;4992066;28;20516;-87
2021/09/30 07:50:26;;;;;;;9.50;3.65;;;10.40;99.90;;;;;;4990749;28;20109;-87
2021/09/30 07:52:57;;;;;;;12.73;3.90;;;10.40;99.90;;;;;;4975236;28;20443;-87
2021/09/30 07:55:38;;;;;;;8.65;3.42;;;10.40;99.90;;;;;;4992660;28;20042;-86
2021/09/30 07:58:14;;;;;;;8.15;3.25;;;10.50;99.90;;;;;;4991117;28;20105;-86
2021/09/30 08:00:43;;;;;;;6.70;3.10;;;10.60;99.90;;;;;;4991425;28;20073;-86
2021/09/30 08:03:13;;;;;;;6.95;3.20;;;10.70;99.90;;;;;;4991764;28;20042;-87
2021/09/30 08:05:52;;;;;;;8.80;3.53;;;10.80;99.90;;;;;;4993079;28;20061;-87
2021/09/30 08:08:25;;;;;;;8.38;3.17;;;11.00;99.90;;;;;;4979542;28;20026;-86
2021/09/30 08:10:55;;;;;;;8.03;3.33;;;11.10;99.90;;;;;;4994983;28;20478;-87
2021/09/30 08:13:45;;;;;;;6.82;3.20;;;11.20;99.90;;;;;;4996166;28;20474;-86
2021/09/30 08:16:14;;;;;;;10.35;3.35;;;11.30;99.90;;;;;;4989430;28;20069;-86
2021/09/30 08:18:41;;;;;;;7.47;3.80;;;11.30;99.90;;;;;;4978979;28;20073;-86
2021/09/30 08:21:12;;;;;;;8.02;3.10;;;11.30;99.90;;;;;;4995346;28;20501;-86
2021/09/30 08:23:48;;;;;;;5.28;2.70;;;11.30;99.90;;;;;;4995353;28;20026;-86
2021/09/30 08:26:19;;;;;;;6.43;3.22;;;11.30;99.90;;;;;;4981987;28;20066;-86
2021/09/30 08:28:51;;;;;;;6.45;2.70;;;11.40;99.90;;;;;;4978372;28;20501;-86
2021/09/30 08:31:29;;;;;;;8.90;2.58;;;11.50;99.90;;;;;;4963743;28;20054;-86
2021/09/30 08:33:58;;;;;;;7.10;2.97;;;11.70;99.90;;;;;;4993496;28;20018;-86
2021/09/30 08:36:36;;;;;;;7.97;3.25;;;11.80;99.90;;;;;;4994122;28;20023;-87
2021/09/30 08:39:13;;;;;;;7.68;2.72;;;12.00;99.90;;;;;;4976821;28;20503;-86
2021/09/30 08:41:39;;;;;;;6.30;2.83;;;12.10;99.90;;;;;;4976453;28;20475;-86
2021/09/30 08:44:17;;;;;;;8.48;3.33;;;12.30;99.90;;;;;;4969921;28;20497;-86
2021/09/30 08:46:44;;;;;;;13.80;3.53;;;12.50;99.90;;;;;;4976971;28;20062;-86
2021/09/30 08:49:37;;;;;;;7.80;2.75;;;12.50;99.90;;;;;;4993545;28;20110;-86
2021/09/30 08:52:09;;;;;;;6.78;2.58;;;12.60;99.90;;;;;;4993568;28;20027;-86
2021/09/30 08:54:41;;;;;;;8.95;3.47;;;12.60;99.90;;;;;;4978931;28;20039;-86
2021/09/30 08:57:07;;;;;;;8.57;3.17;;;12.70;99.90;;;;;;4978300;28;20054;-86
2021/09/30 08:59:38;;;;;;;8.13;3.72;;;12.80;99.90;;;;;;4994327;28;20050;-85
2021/09/30 09:02:23;;;;;;;8.93;2.80;;;12.80;99.90;;;;;;4978920;28;20033;-85
2021/09/30 09:05:05;;;;;;;6.63;2.70;;;12.90;99.90;;;;;;4994927;28;20044;-86
2021/09/30 09:08:01;;;;;;;8.88;2.88;;;13.00;99.90;;;;;;4994735;28;20073;-85
2021/09/30 09:10:43;;;;;;;8.57;3.28;;;13.10;99.90;;;;;;4992393;28;20039;-86
2021/09/30 09:13:21;;;;;;;9.90;2.60;;;13.20;99.90;;;;;;4994408;28;20049;-85
2021/09/30 09:16:06;;;;;;;7.40;3.05;;;13.30;99.90;;;;;;4995058;28;20026;-87
2021/09/30 09:18:42;;;;;;;5.65;2.70;;;13.30;99.90;;;;;;4994713;28;20022;-84
2021/09/30 09:21:23;;;;;;;7.88;2.83;;;13.70;99.90;;;;;;4987136;28;20035;-84
2021/09/30 09:23:56;;;;;;;8.65;2.67;;;14.80;99.90;;;;;;4993531;28;20018;-85
2021/09/30 09:26:37;;;;;;;8.82;2.67;;;15.40;99.90;;;;;;4995283;28;20026;-85
2021/09/30 09:29:13;;;;;;;6.72;2.28;;;15.30;99.90;;;;;;4993282;28;20018;-84
2021/09/30 09:31:50;;;;;;;8.18;2.20;;;15.30;99.90;;;;;;4985098;28;20023;-84
2021/09/30 09:34:39;;;;;;;3.72;1.63;;;16.00;99.90;;;;;;4993355;28;20014;-85
2021/09/30 09:37:19;;;;;;;8.10;2.10;;;16.70;99.90;;;;;;4992574;28;20042;-85
2021/09/30 09:39:51;;;;;;;6.43;2.08;;;16.80;99.90;;;;;;4993858;28;20049;-85
2021/09/30 09:42:32;;;;;;;6.75;1.95;;;16.80;99.90;;;;;;4991594;28;20018;-85
2021/09/30 09:45:06;;;;;;;6.93;2.00;;;17.30;99.90;;;;;;4994442;28;20092;-85
2021/09/30 09:47:41;;;;;;;7.50;2.33;;;17.40;99.90;;;;;;4993726;28;20041;-85
2021/09/30 09:50:25;;;;;;;9.63;2.15;;;17.70;99.90;;;;;;4980878;28;20019;-85
2021/09/30 09:53:01;;;;;;;7.32;1.83;;;17.70;99.90;;;;;;4993616;28;20101;-85
2021/09/30 09:55:43;;;;;;;5.38;1.85;;;17.90;99.90;;;;;;4992400;28;20022;-85
2021/09/30 09:58:16;;;;;;;7.85;2.05;;;18.00;99.90;;;;;;4986930;28;20450;-85
2021/09/30 10:00:52;;;;;;;;;;;17.90;99.90;;;;;;4994066;28;20054;-85
2021/09/30 10:03:27;;;;;;;6.82;2.00;;;18.10;99.90;;;;;;4993472;28;20353;-86
2021/09/30 10:06:08;;;;;;;6.68;1.60;;;18.90;99.90;;;;;;4993904;28;20026;-85
2021/09/30 10:08:41;;;;;;;7.95;1.92;;;19.40;99.90;;;;;;4989090;28;20026;-86
2021/09/30 10:11:10;;;;;;;7.13;1.80;;;19.40;99.90;;;;;;4989243;28;20022;-86
2021/09/30 10:13:45;;;;;;;4.93;1.45;;;19.20;99.90;;;;;;4994978;28;20029;-86
2021/09/30 10:16:24;;;;;;;4.72;1.35;;;19.30;99.90;;;;;;4993383;28;20034;-86
2021/09/30 10:18:58;;;;;;;6.18;1.30;;;19.60;99.90;;;;;;4993874;28;20026;-85
2021/09/30 10:21:30;;;;;;;6.82;1.58;;;19.60;99.90;;;;;;4992919;28;20067;-86
2021/09/30 10:24:06;;;;;;;6.93;1.30;;;19.50;99.90;;;;;;4993376;28;20021;-86
2021/09/30 10:26:44;;;;;;;4.95;1.20;;;19.30;99.90;;;;;;4993124;28;20034;-85
2021/09/30 10:29:33;;;;;;;7.43;1.60;;;19.00;99.90;;;;;;4987419;28;20026;-85
2021/09/30 10:32:05;;;;;;;6.63;1.75;;;18.70;99.90;;;;;;4991904;28;20061;-85
2021/09/30 10:34:34;;;;;;;7.00;1.50;;;19.10;99.90;;;;;;4989227;28;20034;-86
2021/09/30 10:37:29;;;;;;;5.20;1.35;;;19.90;99.90;;;;;;4994153;28;20026;-86
2021/09/30 10:40:15;;;;;;;5.18;1.40;;;20.80;99.90;;;;;;4988834;28;20105;-87
2021/09/30 10:42:57;;;;;;;7.20;1.33;;;20.60;99.90;;;;;;4990253;28;20030;-86
2021/09/30 10:45:27;;;;;;;5.93;1.40;;;20.00;99.90;;;;;;4990341;28;20455;-86
2021/09/30 10:48:04;;;;;;;3.83;0.98;;;19.60;99.90;;;;;;4986615;28;20027;-86
2021/09/30 10:50:49;;;;;;;4.53;1.08;;;19.20;99.90;;;;;;4989940;28;20525;-86
2021/09/30 10:53:15;;;;;;;5.70;1.10;;;18.70;99.90;;;;;;4990249;28;20125;-87
2021/09/30 10:55:42;;;;;;;9.10;1.73;;;18.20;99.90;;;;;;4987436;28;20105;-86
2021/09/30 10:58:44;;;;;;;4.63;1.52;;;17.90;99.90;;;;;;4990740;28;20061;-87
2021/09/30 11:01:14;;;;;;;6.53;1.45;;;17.50;99.90;;;;;;4992738;28;20164;-86
2021/09/30 11:04:04;;;;;;;5.07;1.33;;;17.20;99.90;;;;;;4991040;28;20025;-87
2021/09/30 11:06:40;;;;;;;9.13;1.50;;;17.10;99.90;;;;;;4990399;28;20490;-86
2021/09/30 11:09:26;;;;;;;4.43;1.30;;;17.10;99.90;;;;;;4991324;28;20114;-86
2021/09/30 11:12:11;;;;;;;5.82;1.50;;;17.30;99.90;;;;;;4981551;28;20029;-86
2021/09/30 11:14:56;;;;;;;5.25;1.30;;;17.50;99.90;;;;;;4978965;28;20391;-87
2021/09/30 11:17:40;;;;;;;7.65;1.40;;;17.70;99.90;;;;;;4983700;28;20034;-87
2021/09/30 11:20:35;;;;;;;6.30;1.33;;;17.90;99.90;;;;;;4974633;28;20038;-86
2021/09/30 11:23:07;;;;;;;4.70;1.08;;;18.80;99.90;;;;;;4977261;28;20062;-87
2021/09/30 11:26:11;;;;;;;5.22;1.20;;;19.10;99.90;;;;;;4970487;28;20066;-87
2021/09/30 11:29:20;;;;;;;8.20;1.25;;;18.80;99.90;;;;;;4983199;28;20041;-85
2021/09/30 11:31:56;;;;;;;3.72;1.00;;;18.20;99.90;;;;;;4970716;28;20474;-86
2021/09/30 11:34:34;;;;;;;4.15;1.10;;;17.60;99.90;;;;;;4986349;28;20121;-86
2021/09/30 11:37:36;;;;;;;4.70;0.85;;;17.40;99.90;;;;;;4988079;28;20026;-87
2021/09/30 11:40:11;;;;;;;4.65;1.05;;;17.00;99.90;;;;;;4970959;28;20030;-86
2021/09/30 11:42:52;;;;;;;3.95;1.13;;;16.70;99.90;;;;;;4968735;28;20034;-86
2021/09/30 11:45:30;;;;;;;5.55;1.52;;;16.60;99.90;;;;;;4975098;28;20034;-87
2021/09/30 11:48:11;;;;;;;4.68;1.13;;;16.70;99.90;;;;;;4986869;28;20034;-85
2021/09/30 11:50:46;;;;;;;4.10;0.80;;;17.30;99.90;;;;;;4991210;28;20105;-86
2021/09/30 11:53:13;;;;;;;6.60;1.40;;;17.70;99.90;;;;;;4990911;28;20034;-85
2021/09/30 11:55:43;;;;;;;6.68;1.20;;;18.10;99.90;;;;;;4971446;28;20035;-86
2021/09/30 11:58:16;;;;;;;5.20;1.00;;;18.40;99.90;;;;;;4981226;28;20136;-86
2021/09/30 12:01:01;;;;;;;;;;;18.80;99.90;;;;;;4991352;28;20065;-87
2021/09/30 12:03:28;;;;;;;3.70;1.02;;;19.20;99.60;;;;;;4990684;28;19920;-87
2021/09/30 12:05:56;;;;;;;4.88;0.90;;;19.30;99.60;;;;;;4991450;28;20078;-87
2021/09/30 12:08:25;;;;;;;3.90;1.02;;;19.10;99.70;;;;;;4974482;28;20487;-85
2021/09/30 12:11:05;;;;;;;3.58;1.00;;;18.70;99.90;;;;;;4989969;28;20034;-85
2021/09/30 12:13:34;;;;;;;4.80;0.98;;;18.30;99.90;;;;;;4990161;28;20121;-85
2021/09/30 12:16:12;;;;;;;4.38;1.17;;;18.10;99.90;;;;;;4984917;28;20442;-85
2021/09/30 12:18:41;;;;;;;2.28;0.77;;;18.00;99.90;;;;;;4988892;28;20168;-86
2021/09/30 12:21:14;;;;;;;6.03;0.88;;;17.80;99.90;;;;;;4990768;28;20045;-85
2021/09/30 12:23:49;;;;;;;3.53;0.83;;;17.70;99.90;;;;;;4989384;28;20022;-85
2021/09/30 12:26:38;;;;;;;7.22;1.23;;;17.70;99.90;;;;;;4988834;28;20336;-85
2021/09/30 12:29:07;;;;;;;4.70;0.88;;;17.70;99.90;;;;;;4989687;28;20384;-85
2021/09/30 12:31:43;;;;;;;3.90;0.80;;;17.70;99.90;;;;;;4971555;28;20034;-85
2021/09/30 12:34:30;;;;;;;3.40;0.80;;;17.60;99.90;;;;;;4954059;28;20132;-86
2021/09/30 12:37:07;;;;;;;2.83;0.80;;;17.40;99.90;;;;;;4964779;28;20038;-87
2021/09/30 12:39:40;;;;;;;2.97;0.90;;;17.40;99.90;;;;;;4968620;28;20045;-87
2021/09/30 12:42:25;;;;;;;5.93;1.33;;;17.40;99.90;;;;;;4971280;28;20395;-86
2021/09/30 12:44:56;;;;;;;2.92;0.60;;;17.50;99.90;;;;;;4981002;28;20141;-86
2021/09/30 12:47:34;;;;;;;4.50;0.93;;;17.60;99.90;;;;;;4987448;28;20626;-86
2021/09/30 12:50:09;;;;;;;3.72;0.77;;;17.60;99.90;;;;;;4981404;28;20073;-86
2021/09/30 12:52:46;;;;;;;4.93;0.95;;;17.40;99.90;;;;;;4989246;28;20110;-86
2021/09/30 12:55:24;;;;;;;3.05;0.90;;;17.30;99.90;;;;;;4989407;28;20045;-86
2021/09/30 12:58:01;;;;;;;6.40;0.80;;;17.10;99.90;;;;;;4990085;28;20061;-86
2021/09/30 13:00:44;;;;;;;5.18;1.08;;;17.00;99.90;;;;;;4989967;28;20430;-86
2021/09/30 13:03:16;;;;;;;3.70;0.97;;;16.80;99.90;;;;;;4990026;28;20031;-86
2021/09/30 13:05:52;;;;;;;5.82;1.00;;;16.70;99.90;;;;;;4984763;28;20357;-87
2021/09/30 13:08:41;;;;;;;1.88;0.60;;;16.60;99.90;;;;;;4988649;28;20026;-86
2021/09/30 13:11:48;;;;;;;3.95;1.05;;;16.60;99.90;;;;;;4984881;28;20045;-85
2021/09/30 13:14:28;;;;;;;3.78;1.00;;;16.60;99.90;;;;;;4879269;29;20131;-86
2021/09/30 13:17:12;;;;;;;3.47;0.80;;;16.60;99.90;;;;;;4974745;28;20100;-86
2021/09/30 13:20:06;;;;;;;5.03;1.30;;;16.50;99.90;;;;;;4989090;28;20037;-86
2021/09/30 13:22:34;;;;;;;4.60;0.90;;;16.40;99.90;;;;;;4988480;28;20030;-86
2021/09/30 13:25:07;;;;;;;3.75;1.00;;;16.40;99.90;;;;;;4982156;28;20042;-86
2021/09/30 13:27:37;;;;;;;5.55;1.10;;;16.50;99.90;;;;;;4986568;28;20026;-86
2021/09/30 13:30:08;;;;;;;6.00;1.13;;;16.60;99.90;;;;;;4967173;28;20032;-86
2021/09/30 13:32:59;;;;;;;3.28;0.95;;;16.60;99.90;;;;;;4982262;28;20041;-86
2021/09/30 13:35:29;;;;;;;4.25;1.00;;;16.60;99.90;;;;;;4972378;28;20026;-87
2021/09/30 13:38:00;;;;;;;4.80;1.17;;;16.60;99.90;;;;;;4988032;28;20371;-86
2021/09/30 13:40:26;;;;;;;4.85;1.02;;;16.60;99.90;;;;;;4988469;28;20394;-86
2021/09/30 13:43:01;;;;;;;4.82;1.63;;;16.60;99.90;;;;;;4989274;28;20026;-86
2021/09/30 13:45:30;;;;;;;4.50;1.00;;;16.70;99.90;;;;;;4962404;28;20025;-85
2021/09/30 13:47:59;;;;;;;5.28;1.08;;;16.50;99.90;;;;;;4970172;28;20043;-86
2021/09/30 13:50:33;;;;;;;5.45;1.02;;;16.50;99.90;;;;;;4969142;28;20034;-87
2021/09/30 13:52:59;;;;;;;5.45;1.15;;;16.50;99.90;;;;;;4986535;28;20138;-86
2021/09/30 13:55:26;;;;;;;6.30;1.20;;;16.30;99.90;;;;;;4985418;28;20644;-85
2021/09/30 13:57:52;;;;;;;7.00;1.50;;;16.20;99.90;;;;;;4984441;28;20492;-86
2021/09/30 14:00:19;;;;;;;3.22;1.25;;;16.00;99.90;;;;;;4987007;28;20026;-85
2021/09/30 14:02:47;;;;;;;4.03;1.25;;;15.90;99.90;;;;;;4986527;28;20552;-85
2021/09/30 14:05:15;;;;;;;4.78;1.30;;;15.80;99.90;;;;;;4987773;28;20133;-86
2021/09/30 14:07:42;;;;;;;6.40;1.00;;;15.80;99.90;;;;;;4969781;28;20042;-86
2021/09/30 14:10:16;;;;;;;4.10;0.85;;;15.80;99.90;;;;;;4970471;28;20042;-85
2021/09/30 14:12:45;;;;;;;4.70;1.00;;;15.70;99.90;;;;;;4985617;28;20570;-84
2021/09/30 14:15:11;;;;;;;3.78;1.20;;;15.70;99.90;;;;;;4970108;28;20072;-86
2021/09/30 14:17:40;;;;;;;5.70;1.48;;;15.70;99.90;;;;;;4986121;28;20493;-86
2021/09/30 14:20:11;;;;;;;4.55;1.13;;;15.70;99.90;;;;;;4968887;28;20058;-87
2021/09/30 14:22:38;;;;;;;3.83;1.38;;;15.60;99.90;;;;;;4968571;28;20479;-86
2021/09/30 14:25:07;;;;;;;7.85;1.63;;;15.70;99.90;;;;;;4986389;28;20810;-86
2021/09/30 14:27:34;;;;;;;4.57;1.20;;;15.60;99.90;;;;;;4984505;28;20030;-85
2021/09/30 14:30:01;;;;;;;4.60;1.45;;;15.60;99.90;;;;;;4984563;28;20041;-86
2021/09/30 14:32:30;;;;;;;5.40;1.35;;;15.60;99.90;;;;;;4987026;28;20018;-85
2021/09/30 14:34:57;;;;;;;7.45;1.65;;;15.60;99.90;;;;;;4968312;28;20097;-85
2021/09/30 14:37:28;;;;;;;4.07;1.10;;;15.60;99.90;;;;;;4986110;28;20026;-86
2021/09/30 14:39:57;;;;;;;5.63;1.77;;;15.70;99.90;;;;;;4985239;28;20764;-86
2021/09/30 14:42:24;;;;;;;4.65;1.70;;;15.70;99.90;;;;;;4970027;28;20141;-86
2021/09/30 14:44:59;;;;;;;4.72;1.25;;;15.80;99.90;;;;;;4969677;28;20034;-85
2021/09/30 14:47:25;;;;;;;6.30;1.70;;;15.90;99.90;;;;;;4986084;28;20039;-86
2021/09/30 14:49:51;;;;;;;7.13;1.65;;;15.90;99.90;;;;;;4969407;28;20026;-85
2021/09/30 14:52:19;;;;;;;8.52;2.30;;;15.90;99.90;;;;;;4982252;28;20455;-85
2021/09/30 14:54:48;;;;;;;5.10;1.70;;;15.90;99.90;;;;;;4980854;28;20507;-86
2021/09/30 14:57:18;;;;;;;6.20;1.58;;;15.90;99.90;;;;;;4968580;28;20046;-85
2021/09/30 14:59:46;;;;;;;4.43;1.45;;;15.90;99.90;;;;;;4969594;28;20660;-84
2021/09/30 15:02:13;;;;;;;7.53;1.67;;;15.90;99.90;;;;;;4984543;28;20114;-85
2021/09/30 15:04:40;;;;;;;7.07;1.73;;;15.90;99.90;;;;;;4985887;28;20512;-85
2021/09/30 15:07:08;;;;;;;3.67;1.30;;;15.80;99.90;;;;;;4984962;28;20049;-85
2021/09/30 15:09:35;;;;;;;7.28;1.60;;;15.80;99.90;;;;;;4982500;28;20050;-85
2021/09/30 15:12:03;;;;;;;6.32;1.83;;;15.80;99.90;;;;;;4979178;28;20157;-85
2021/09/30 15:14:32;;;;;;;4.82;1.40;;;15.70;99.90;;;;;;4964017;28;20050;-85
2021/09/30 15:20:12;;;;;;;7.47;1.30;;;15.60;99.90;;;;;;4969557;28;20125;-85
2021/09/30 15:22:44;;;;;;;3.72;1.20;;;15.50;99.90;;;;;;4984873;28;20026;-85
2021/09/30 15:25:11;;;;;;;11.35;1.20;;;15.50;99.90;;;;;;4982260;28;20030;-85
2021/09/30 15:27:39;;;;;;;6.90;1.52;;;15.40;99.90;;;;;;4982291;28;20397;-84
2021/09/30 15:30:06;;;;;;;5.07;1.30;;;15.40;99.90;;;;;;4983437;28;20022;-83
2021/09/30 15:32:35;;;;;;;2.80;1.10;;;15.30;99.90;;;;;;4981674;28;20108;-84
2021/09/30 15:35:02;;;;;;;4.30;1.30;;;15.20;99.90;;;;;;4985201;28;20031;-84
2021/09/30 15:37:30;;;;;;;4.82;1.00;;;15.20;99.90;;;;;;4984958;28;20053;-84
2021/09/30 15:39:56;;;;;;;6.10;1.30;;;15.20;99.90;;;;;;4986438;28;20442;-84
2021/09/30 15:42:24;;;;;;;5.55;1.17;;;15.10;99.90;;;;;;4984604;28;20022;-84
2021/09/30 15:44:55;;;;;;;5.97;1.10;;;15.10;99.90;;;;;;4986502;28;20762;-86
2021/09/30 15:47:25;;;;;;;8.45;1.80;;;15.00;99.90;;;;;;4985381;28;20034;-84
2021/09/30 15:49:52;;;;;;;6.07;1.48;;;15.00;99.90;;;;;;4985270;28;20041;-85
2021/09/30 15:52:19;;;;;;;4.03;0.90;;;15.00;99.90;;;;;;4985503;28;20031;-85
2021/09/30 15:54:52;;;;;;;5.32;0.98;;;14.90;99.90;;;;;;4985111;28;20395;-85
2021/09/30 15:57:19;;;;;;;6.40;1.37;;;14.90;99.90;;;;;;4985753;28;20045;-85
2021/09/30 15:59:48;;;;;;;4.97;1.40;;;14.90;99.90;;;;;;4984837;28;20521;-86
2021/09/30 16:02:21;;;;;;;7.35;1.20;;;14.90;99.90;;;;;;4986494;28;20429;-85
2021/09/30 16:04:48;;;;;;;4.70;1.20;;;14.90;99.90;;;;;;4981876;28;20049;-86
2021/09/30 16:07:19;;;;;;;9.13;2.05;;;14.90;99.90;;;;;;4962698;28;20507;-85
2021/09/30 16:09:48;;;;;;;4.55;0.98;;;14.90;99.90;;;;;;4984071;28;20030;-85